Fort Mchenry — WD19336 — position and weather

sailwx.info

Track history (hours):
 
Tides and Currents Weather Stations Pressure Air Temp Water Temp Dewpoint Dewpoint Depression Visibility Wind Speed Wind Dir Waves Ship Positions

Fort Mchenry

Last reported at 2017-Sep-24 10:00 UTC. Time now 2017-Sep-24 10:26 UTC.
Position N 40°39' W 074°07'.

Length 28 m; draft 4 m.

Type: Towing. MMSI: 369131000.

Date/timePositionNaut miles runAvg speedWind from/ knotsBaromVisibWave heightAir tempDewpointWater temp
2017-Sep-24 10:00N 40°39' W 074°07'0 0.0
2017-Sep-24 09:30N 40°39' W 074°07'0 0.8
2017-Sep-24 09:00N 40°39' W 074°07'0 0.0
2017-Sep-24 08:30N 40°39' W 074°07'0 0.0
2017-Sep-24 08:01N 40°39' W 074°07'0 0.0
2017-Sep-24 07:30N 40°39' W 074°07'4 7.3
2017-Sep-24 07:01N 40°40' W 074°03'0 0.6
2017-Sep-24 06:30N 40°40' W 074°03'4 8.7
2017-Sep-24 06:00N 40°39' W 074°09'2 4.3
2017-Sep-24 05:31N 40°41' W 074°09'0 0.4
2017-Sep-24 05:01N 40°41' W 074°09'2 4.6
2017-Sep-24 04:31N 40°39' W 074°09'5 9.1
2017-Sep-24 04:01N 40°39' W 074°03'2 4.7
2017-Sep-24 03:31N 40°40' W 074°00'0 0.0
2017-Sep-24 03:01N 40°40' W 074°00'0 0.0
2017-Sep-24 02:31N 40°40' W 074°00'0 0.0
2017-Sep-24 02:01N 40°40' W 074°00'2 4.4
2017-Sep-24 01:31N 40°40' W 074°03'1 2.6
2017-Sep-24 01:01N 40°40' W 074°04'4 6.8
2017-Sep-24 00:28N 40°39' W 074°09'3 7.5
2017-Sep-24 00:01N 40°42' W 074°07'1 2.3
2017-Sep-23 23:31N 40°41' W 074°08'1 2.1
2017-Sep-23 23:00N 40°41' W 074°09'0 0.0
2017-Sep-23 22:30N 40°41' W 074°09'2 4.0
2017-Sep-23 22:01N 40°39' W 074°09'2 4.3
2017-Sep-23 21:30N 40°39' W 074°06'0 0.7
2017-Sep-23 21:00N 40°39' W 074°06'0 0.0
2017-Sep-23 20:31N 40°39' W 074°06'0 0.0
2017-Sep-23 20:00N 40°39' W 074°06'0 0.0
2017-Sep-22 02:01N 40°39' W 074°06'0 0.0
2017-Sep-22 01:30N 40°39' W 074°06'1 1.4
2017-Sep-22 01:01N 40°39' W 074°07'4 8.2
2017-Sep-22 00:30N 40°40' W 074°01'1 2.0
2017-Sep-22 00:01N 40°40' W 074°00'1 1.7
2017-Sep-21 23:31N 40°40' W 074°01'5 9.3
2017-Sep-21 23:00N 40°45' W 074°01'510.2
2017-Sep-21 22:31N 40°49' W 073°58'611.2
2017-Sep-21 22:00N 40°55' W 073°55'3 0.1
2017-Sep-20 08:33N 40°58' W 073°54'1 4.9
2017-Sep-20 08:22N 40°57' W 073°54'2 5.1
2017-Sep-20 08:00N 40°55' W 073°55'3 5.2
2017-Sep-20 07:30N 40°53' W 073°56'3 5.2
2017-Sep-20 07:00N 40°50' W 073°57'2 5.0
2017-Sep-20 06:30N 40°48' W 073°59'3 5.0
2017-Sep-20 06:00N 40°46' W 074°00'3 5.7
2017-Sep-20 05:31N 40°43' W 074°01'3 6.1
2017-Sep-20 05:01N 40°40' W 074°02'3 6.1
2017-Sep-20 04:31N 40°39' W 074°06'3 5.7
2017-Sep-20 04:01N 40°39' W 074°10'2 3.6
2017-Sep-20 03:30N 40°38' W 074°12'2 4.0
2017-Sep-20 03:00N 40°36' W 074°12'0 0.0
2017-Sep-20 02:02N 40°36' W 074°12'0 0.0
2017-Sep-20 01:36N 40°36' W 074°12'0 0.0
2017-Sep-20 00:13N 40°36' W 074°12'0 0.1
2017-Sep-20 00:00N 40°36' W 074°12'3 5.8
2017-Sep-19 23:30N 40°39' W 074°11'2 5.0
2017-Sep-19 23:00N 40°39' W 074°07'0 0.0
2017-Sep-19 22:31N 40°39' W 074°07'0 0.0
2017-Sep-19 22:00N 40°39' W 074°07'0 0.0
2017-Sep-19 21:30N 40°39' W 074°07'0 0.0
2017-Sep-19 21:00N 40°39' W 074°07'0 0.0
2017-Sep-19 20:30N 40°39' W 074°07'0 0.0
2017-Sep-19 20:01N 40°39' W 074°07'0 0.0
2017-Sep-19 19:31N 40°39' W 074°07'1 1.4
2017-Sep-19 19:01N 40°39' W 074°07'2 4.1
2017-Sep-19 18:31N 40°39' W 074°04'4 7.1
2017-Sep-19 18:01N 40°41' W 074°00'2 3.1
2017-Sep-19 17:31N 40°40' W 074°01'1 1.5
2017-Sep-19 17:00N 40°40' W 074°00'0 0.0
2017-Sep-19 16:31N 40°40' W 074°00'0 0.0
2017-Sep-19 16:01N 40°40' W 074°00'0 0.5
2017-Sep-19 15:31N 40°40' W 074°00'0 0.1
2017-Sep-19 15:01N 40°40' W 074°00'0 0.0
2017-Sep-19 14:31N 40°40' W 074°00'0 0.0
2017-Sep-19 14:01N 40°40' W 074°00'3 5.5
2017-Sep-19 13:31N 40°42' W 073°58'0 0.2
2017-Sep-19 13:01N 40°42' W 073°59'3 6.0
2017-Sep-19 12:31N 40°40' W 074°01'1 1.7
2017-Sep-19 12:01N 40°40' W 074°00'0 0.0
2017-Sep-19 11:31N 40°40' W 074°00'0 0.0
2017-Sep-19 11:01N 40°40' W 074°00'0 0.0
2017-Sep-19 10:31N 40°40' W 074°00'0 0.0
2017-Sep-19 10:01N 40°40' W 074°00'0 0.8
2017-Sep-19 09:31N 40°40' W 074°01'4 8.8
2017-Sep-19 09:01N 40°39' W 074°06'4 8.2
2017-Sep-19 08:30N 40°38' W 074°12'2 2.4
2017-Sep-19 07:35N 40°36' W 074°12'0 4.0
2017-Sep-19 07:30N 40°37' W 074°12'1 1.7
2017-Sep-19 07:00N 40°37' W 074°12'1 1.8
2017-Sep-19 06:30N 40°38' W 074°12'1 2.7
2017-Sep-19 06:00N 40°39' W 074°10'0 0.0
2017-Sep-19 05:30N 40°39' W 074°10'0 0.0
2017-Sep-19 05:00N 40°39' W 074°10'0 0.0
2017-Sep-19 04:23N 40°39' W 074°10'0 0.0
2017-Sep-19 04:00N 40°39' W 074°10'1 2.5
2017-Sep-19 03:30N 40°40' W 074°09'0 0.0
2017-Sep-19 03:00N 40°40' W 074°09'0 0.0
2017-Sep-19 02:30N 40°40' W 074°09'0 0.0
2017-Sep-19 02:00N 40°40' W 074°09'0 0.0
2017-Sep-19 01:30N 40°40' W 074°09'0 0.0
2017-Sep-19 01:00N 40°40' W 074°09'3 5.6
2017-Sep-19 00:30N 40°42' W 074°07'1 2.1
2017-Sep-18 23:59N 40°43' W 074°07'1 1.8
2017-Sep-18 23:30N 40°42' W 074°07'2 3.9
2017-Sep-18 23:00N 40°41' W 074°09'0 0.2
2017-Sep-18 22:31N 40°41' W 074°09'1 1.2
2017-Sep-18 22:00N 40°41' W 074°10'0 0.0
2017-Sep-18 21:30N 40°41' W 074°10'0 0.0
2017-Sep-18 20:59N 40°41' W 074°10'0 0.0
2017-Sep-18 20:30N 40°41' W 074°10'0 0.0
2017-Sep-18 20:00N 40°41' W 074°10'0 0.0
2017-Sep-18 19:31N 40°41' W 074°10'0 0.0
2017-Sep-18 19:00N 40°41' W 074°10'0 0.0
2017-Sep-18 18:31N 40°41' W 074°10'0 0.0
2017-Sep-18 18:00N 40°41' W 074°10'0 0.0
2017-Sep-18 17:31N 40°41' W 074°10'0 0.0
2017-Sep-18 17:01N 40°41' W 074°10'0 0.0
2017-Sep-18 16:31N 40°41' W 074°10'0 0.0
2017-Sep-18 16:00N 40°41' W 074°10'0 0.2
2017-Sep-18 15:30N 40°41' W 074°09'2 4.2
2017-Sep-18 15:01N 40°39' W 074°09'2 3.9
2017-Sep-18 14:31N 40°39' W 074°06'0 0.3
2017-Sep-18 14:01N 40°39' W 074°06'3 6.1
2017-Sep-18 13:31N 40°39' W 074°10'2 3.7
2017-Sep-18 13:00N 40°38' W 074°12'0 0.0
2017-Sep-18 12:31N 40°38' W 074°12'0 0.8
2017-Sep-18 12:00N 40°38' W 074°12'1 1.0
2017-Sep-18 11:30N 40°38' W 074°12'4 7.7
2017-Sep-18 11:00N 40°39' W 074°07'4 7.3
2017-Sep-18 10:31N 40°41' W 074°03'4 7.3
2017-Sep-18 10:01N 40°44' W 074°01'2 3.9
2017-Sep-18 09:30N 40°46' W 074°00'0 0.0
2017-Sep-18 09:01N 40°46' W 074°00'0 0.0
2017-Sep-18 08:31N 40°46' W 074°00'0 0.0
2017-Sep-18 08:01N 40°46' W 074°00'0 0.0
2017-Sep-18 07:30N 40°46' W 074°00'0 0.0
2017-Sep-18 07:01N 40°46' W 074°00'0 0.0
2017-Sep-18 06:30N 40°46' W 074°00'0 0.0
2017-Sep-18 06:00N 40°46' W 074°00'0 0.0
2017-Sep-18 05:30N 40°46' W 074°00'0 0.0
2017-Sep-18 05:01N 40°46' W 074°00'0 0.0
2017-Sep-18 04:30N 40°46' W 074°00'0 0.0
2017-Sep-18 04:00N 40°46' W 074°00'0 0.0
2017-Sep-18 03:30N 40°46' W 074°00'0 0.0
2017-Sep-18 03:01N 40°46' W 074°00'0 0.0
2017-Sep-18 02:30N 40°46' W 074°00'1 2.8
2017-Sep-18 02:01N 40°45' W 074°01'4 8.3
2017-Sep-18 01:31N 40°41' W 074°02'3 5.0
2017-Sep-18 01:01N 40°39' W 074°05'0 0.1
2017-Sep-18 00:30N 40°39' W 074°05'1 1.5
2017-Sep-18 00:01N 40°39' W 074°06'0 0.0
2017-Sep-17 23:31N 40°39' W 074°06'0 0.0
2017-Sep-17 23:01N 40°39' W 074°06'0 0.0
2017-Sep-17 22:31N 40°39' W 074°06'0 0.0
2017-Sep-17 22:00N 40°39' W 074°06'0 0.0
2017-Sep-17 21:31N 40°39' W 074°06'0 0.0
2017-Sep-17 21:00N 40°39' W 074°06'2 4.6
2017-Sep-17 20:31N 40°40' W 074°03'0 0.3
2017-Sep-17 20:01N 40°40' W 074°03'1 2.1
2017-Sep-17 19:31N 40°39' W 074°03'2 4.4
2017-Sep-17 19:01N 40°39' W 074°06'0 0.0
2017-Sep-17 18:31N 40°39' W 074°06'0 0.0
2017-Sep-17 18:00N 40°39' W 074°06'0 0.0
2017-Sep-17 17:30N 40°39' W 074°06'0 0.0
2017-Sep-17 17:01N 40°39' W 074°06'1 1.5
2017-Sep-17 16:30N 40°39' W 074°05'1 2.7
2017-Sep-17 16:01N 40°39' W 074°03'5 9.6
2017-Sep-17 15:30N 40°44' W 074°01'2 4.6
2017-Sep-17 15:00N 40°46' W 073°60'0 0.0
2017-Sep-17 14:31N 40°46' W 073°60'0 0.0
2017-Sep-17 14:01N 40°46' W 073°60'0 0.0
2017-Sep-17 13:30N 40°46' W 073°60'0 0.0
2017-Sep-17 13:00N 40°46' W 073°60'0 0.0
2017-Sep-17 12:31N 40°46' W 073°60'0 0.0
2017-Sep-17 12:01N 40°46' W 073°60'0 0.0
2017-Sep-17 11:30N 40°46' W 073°60'0 0.0
2017-Sep-17 11:00N 40°46' W 073°60'0 0.3
2017-Sep-17 10:31N 40°46' W 074°00'1 2.7
2017-Sep-17 10:00N 40°45' W 074°01'3 6.1
2017-Sep-17 09:31N 40°42' W 074°02'4 7.1
2017-Sep-17 09:01N 40°39' W 074°05'0 0.3
2017-Sep-17 08:30N 40°39' W 074°05'1 1.5
2017-Sep-17 08:00N 40°39' W 074°06'0 0.0
2017-Sep-17 07:31N 40°39' W 074°06'0 0.0
2017-Sep-17 07:01N 40°39' W 074°06'0 0.0
2017-Sep-17 06:01N 40°39' W 074°06'0 0.0
2017-Sep-17 05:31N 40°39' W 074°06'0 0.0
2017-Sep-17 05:01N 40°39' W 074°06'0 0.0
2017-Sep-17 04:30N 40°39' W 074°06'0 0.0
2017-Sep-17 04:00N 40°39' W 074°06'1 1.9
2017-Sep-17 03:30N 40°39' W 074°07'0 0.6
2017-Sep-17 03:01N 40°39' W 074°07'0 0.0
2017-Sep-17 02:30N 40°39' W 074°07'0 0.1
2017-Sep-17 02:00N 40°39' W 074°07'3 6.6
2017-Sep-17 01:31N 40°39' W 074°03'2 4.7
2017-Sep-17 01:01N 40°40' W 074°00'2 4.4
2017-Sep-17 00:30N 40°39' W 074°03'2 4.1
2017-Sep-17 00:01N 40°39' W 074°05'2 3.2
2017-Sep-16 23:30N 40°40' W 074°03'4 7.2
2017-Sep-16 23:01N 40°43' W 074°02'3 6.0
2017-Sep-16 22:30N 40°46' W 074°00'0 0.2
2017-Sep-16 22:00N 40°46' W 074°00'0 0.0
2017-Sep-16 21:30N 40°46' W 074°00'0 0.0
2017-Sep-16 21:00N 40°46' W 074°00'0 0.0
2017-Sep-16 20:30N 40°46' W 074°00'0 0.0
2017-Sep-16 20:00N 40°46' W 074°00'0 0.0
2017-Sep-16 19:30N 40°46' W 074°00'0 0.0
2017-Sep-16 19:01N 40°46' W 074°00'0 0.0
2017-Sep-16 18:30N 40°46' W 074°00'0 0.1
2017-Sep-16 18:00N 40°46' W 074°00'0 0.0
2017-Sep-16 17:30N 40°46' W 074°00'0 0.4
2017-Sep-16 17:00N 40°46' W 074°00'0 0.6
2017-Sep-16 16:30N 40°46' W 073°60'0 0.0
2017-Sep-16 16:00N 40°46' W 073°60'0 0.0
2017-Sep-16 15:30N 40°46' W 073°60'0 0.0
2017-Sep-16 15:00N 40°46' W 073°60'0 0.0
2017-Sep-16 14:30N 40°46' W 073°60'0 0.0
2017-Sep-16 14:00N 40°46' W 073°60'0 0.0
2017-Sep-16 13:30N 40°46' W 073°60'0 0.0
2017-Sep-16 13:00N 40°46' W 073°60'0 0.0
2017-Sep-16 12:30N 40°46' W 073°60'0 0.0
2017-Sep-16 12:00N 40°46' W 073°60'0 0.3
2017-Sep-16 11:30N 40°46' W 074°00'2 3.7
2017-Sep-16 11:00N 40°44' W 074°01'4 8.6
2017-Sep-16 10:30N 40°40' W 074°03'2 4.2
2017-Sep-16 10:00N 40°39' W 074°05'0 0.0
2017-Sep-16 09:30N 40°39' W 074°05'0 0.0
2017-Sep-16 09:00N 40°39' W 074°05'0 0.0
2017-Sep-16 08:30N 40°39' W 074°05'0 0.0
2017-Sep-16 08:01N 40°39' W 074°05'4 8.5
2017-Sep-16 07:30N 40°36' W 074°02'1 1.3
2017-Sep-16 07:00N 40°35' W 074°02'2 5.0
2017-Sep-16 06:30N 40°38' W 074°03'1 2.4
2017-Sep-16 06:00N 40°39' W 074°03'0 0.2
2017-Sep-16 05:30N 40°39' W 074°03'0 0.2
2017-Sep-16 05:00N 40°39' W 074°03'0 0.0
2017-Sep-16 04:30N 40°39' W 074°03'0 0.0
2017-Sep-16 04:00N 40°39' W 074°03'0 0.0
2017-Sep-16 03:30N 40°39' W 074°03'0 0.0
2017-Sep-16 03:00N 40°39' W 074°03'0 0.0
2017-Sep-16 02:30N 40°39' W 074°03'0 0.4
2017-Sep-16 02:00N 40°38' W 074°03'2 4.0
2017-Sep-16 01:30N 40°40' W 074°03'1 1.9
2017-Sep-16 01:00N 40°40' W 074°04'0 0.0
2017-Sep-16 00:30N 40°40' W 074°04'0 0.0
2017-Sep-16 00:00N 40°40' W 074°04'0 0.0
2017-Sep-15 23:30N 40°40' W 074°04'0 0.0
2017-Sep-15 23:00N 40°40' W 074°04'1 2.2
2017-Sep-15 22:30N 40°41' W 074°03'3 5.6
2017-Sep-15 22:00N 40°39' W 074°06'1 1.4
2017-Sep-15 21:30N 40°39' W 074°05'0 0.9
2017-Sep-15 21:00N 40°39' W 074°05'0 0.6
2017-Sep-15 20:31N 40°39' W 074°05'0 0.8
2017-Sep-15 20:00N 40°39' W 074°04'3 6.4
2017-Sep-15 19:31N 40°40' W 074°00'0 0.3
2017-Sep-15 19:00N 40°40' W 074°00'0 0.0
2017-Sep-15 18:30N 40°40' W 074°00'0 0.0
2017-Sep-15 18:00N 40°40' W 074°00'0 0.0
2017-Sep-15 17:30N 40°40' W 074°00'0 0.0
2017-Sep-15 17:00N 40°40' W 074°00'0 0.0
2017-Sep-15 16:30N 40°40' W 074°00'0 0.0
2017-Sep-15 16:00N 40°40' W 074°00'2 4.4
2017-Sep-15 15:30N 40°40' W 074°03'2 4.0
2017-Sep-15 15:01N 40°38' W 074°03'1 2.2
2017-Sep-15 14:30N 40°39' W 074°02'2 3.9
2017-Sep-15 14:01N 40°41' W 074°01'1 2.3
2017-Sep-15 13:30N 40°40' W 074°00'0 0.0
2017-Sep-15 13:00N 40°40' W 074°00'0 0.0
2017-Sep-15 12:30N 40°40' W 074°00'0 0.0
2017-Sep-15 12:00N 40°40' W 074°00'0 0.0
2017-Sep-15 11:30N 40°40' W 074°00'0 0.5
2017-Sep-15 11:00N 40°40' W 074°00'0 0.0
2017-Sep-15 10:31N 40°40' W 074°00'3 6.7
2017-Sep-15 10:00N 40°40' W 074°05'1 1.3
2017-Sep-15 09:30N 40°40' W 074°04'0 0.0
2017-Sep-15 09:00N 40°40' W 074°04'0 0.0
2017-Sep-15 08:30N 40°40' W 074°04'0 0.0
2017-Sep-15 08:00N 40°40' W 074°04'0 0.0
2017-Sep-15 07:30N 40°40' W 074°04'2 4.5
2017-Sep-15 07:01N 40°40' W 074°01'1 1.3
2017-Sep-15 06:30N 40°40' W 074°00'4 7.1
2017-Sep-15 06:00N 40°39' W 074°05'3 6.0
2017-Sep-15 05:30N 40°39' W 074°09'2 3.4
2017-Sep-15 05:00N 40°41' W 074°09'0 0.2
2017-Sep-15 04:30N 40°41' W 074°09'0 0.2
2017-Sep-15 04:00N 40°41' W 074°09'1 2.6
2017-Sep-15 03:30N 40°40' W 074°08'2 3.1
2017-Sep-15 03:00N 40°39' W 074°07'0 0.3
2017-Sep-15 02:31N 40°39' W 074°07'1 1.3
2017-Sep-15 02:00N 40°39' W 074°06'0 0.0
2017-Sep-15 01:30N 40°39' W 074°06'0 0.0
2017-Sep-15 01:01N 40°39' W 074°06'0 0.0
2017-Sep-15 00:30N 40°39' W 074°06'0 0.0
2017-Sep-15 00:01N 40°39' W 074°06'0 0.0
2017-Sep-14 23:31N 40°39' W 074°06'0 0.0
2017-Sep-14 23:00N 40°39' W 074°06'0 0.0
2017-Sep-14 22:31N 40°39' W 074°06'0 0.0
2017-Sep-14 22:00N 40°39' W 074°06'1 2.2
2017-Sep-14 21:30N 40°39' W 074°07'4 8.3
2017-Sep-14 21:01N 40°37' W 074°12'4 8.2
2017-Sep-14 20:30N 40°33' W 074°15'1 1.8
2017-Sep-14 19:59N 40°32' W 074°15'5 5.3
2017-Sep-14 19:08N 40°36' W 074°12'1 5.1
2017-Sep-14 18:58N 40°37' W 074°12'2 5.3
2017-Sep-14 18:31N 40°39' W 074°10'4 7.4
2017-Sep-14 18:00N 40°39' W 074°05'2 4.4
2017-Sep-14 17:31N 40°41' W 074°03'2 4.4
2017-Sep-14 17:01N 40°40' W 074°00'0 0.0
2017-Sep-14 16:30N 40°40' W 074°00'0 0.0
2017-Sep-14 16:00N 40°40' W 074°00'0 0.0
2017-Sep-14 15:31N 40°40' W 074°00'0 0.0
2017-Sep-14 15:01N 40°40' W 074°00'0 0.6
2017-Sep-14 14:30N 40°40' W 074°01'2 4.6
2017-Sep-14 14:00N 40°39' W 074°03'4 8.3
2017-Sep-14 13:31N 40°38' W 074°09'2 3.3
2017-Sep-14 13:00N 40°40' W 074°08'0 0.0
2017-Sep-14 12:31N 40°40' W 074°08'0 0.0
2017-Sep-14 12:01N 40°40' W 074°08'1 1.0
2017-Sep-14 11:31N 40°40' W 074°09'3 5.4
2017-Sep-14 11:01N 40°39' W 074°05'3 6.2
2017-Sep-14 10:30N 40°41' W 074°01'1 2.3
2017-Sep-14 10:00N 40°42' W 074°00'  
Track history (hours):
 
Tides and Currents Weather Stations Pressure Air Temp Water Temp Dewpoint Dewpoint Depression Visibility Wind Speed Wind Dir Waves Ship Positions

Fort Mchenry

Last reported at 2017-Sep-24 10:00 UTC. Time now 2017-Sep-24 10:26 UTC.
Position N 40°39' W 074°07'.

Length 28 m; draft 4 m.

Type: Towing. MMSI: 369131000.

Date/timePositionNaut miles runAvg speedWind from/ knotsBaromVisibWave heightAir tempDewpointWater temp
2017-Sep-24 10:00N 40°39' W 074°07'0 0.0
2017-Sep-24 09:30N 40°39' W 074°07'0 0.8
2017-Sep-24 09:00N 40°39' W 074°07'0 0.0
2017-Sep-24 08:30N 40°39' W 074°07'0 0.0
2017-Sep-24 08:01N 40°39' W 074°07'0 0.0
2017-Sep-24 07:30N 40°39' W 074°07'4 7.3
2017-Sep-24 07:01N 40°40' W 074°03'0 0.6
2017-Sep-24 06:30N 40°40' W 074°03'4 8.7
2017-Sep-24 06:00N 40°39' W 074°09'2 4.3
2017-Sep-24 05:31N 40°41' W 074°09'0 0.4
2017-Sep-24 05:01N 40°41' W 074°09'2 4.6
2017-Sep-24 04:31N 40°39' W 074°09'5 9.1
2017-Sep-24 04:01N 40°39' W 074°03'2 4.7
2017-Sep-24 03:31N 40°40' W 074°00'0 0.0
2017-Sep-24 03:01N 40°40' W 074°00'0 0.0
2017-Sep-24 02:31N 40°40' W 074°00'0 0.0
2017-Sep-24 02:01N 40°40' W 074°00'2 4.4
2017-Sep-24 01:31N 40°40' W 074°03'1 2.6
2017-Sep-24 01:01N 40°40' W 074°04'4 6.8
2017-Sep-24 00:28N 40°39' W 074°09'3 7.5
2017-Sep-24 00:01N 40°42' W 074°07'1 2.3
2017-Sep-23 23:31N 40°41' W 074°08'1 2.1
2017-Sep-23 23:00N 40°41' W 074°09'0 0.0
2017-Sep-23 22:30N 40°41' W 074°09'2 4.0
2017-Sep-23 22:01N 40°39' W 074°09'2 4.3
2017-Sep-23 21:30N 40°39' W 074°06'0 0.7
2017-Sep-23 21:00N 40°39' W 074°06'0 0.0
2017-Sep-23 20:31N 40°39' W 074°06'0 0.0
2017-Sep-23 20:00N 40°39' W 074°06'0 0.0
2017-Sep-22 02:01N 40°39' W 074°06'0 0.0
2017-Sep-22 01:30N 40°39' W 074°06'1 1.4
2017-Sep-22 01:01N 40°39' W 074°07'4 8.2
2017-Sep-22 00:30N 40°40' W 074°01'1 2.0
2017-Sep-22 00:01N 40°40' W 074°00'1 1.7
2017-Sep-21 23:31N 40°40' W 074°01'5 9.3
2017-Sep-21 23:00N 40°45' W 074°01'510.2
2017-Sep-21 22:31N 40°49' W 073°58'611.2
2017-Sep-21 22:00N 40°55' W 073°55'3 0.1
2017-Sep-20 08:33N 40°58' W 073°54'1 4.9
2017-Sep-20 08:22N 40°57' W 073°54'2 5.1
2017-Sep-20 08:00N 40°55' W 073°55'3 5.2
2017-Sep-20 07:30N 40°53' W 073°56'3 5.2
2017-Sep-20 07:00N 40°50' W 073°57'2 5.0
2017-Sep-20 06:30N 40°48' W 073°59'3 5.0
2017-Sep-20 06:00N 40°46' W 074°00'3 5.7
2017-Sep-20 05:31N 40°43' W 074°01'3 6.1
2017-Sep-20 05:01N 40°40' W 074°02'3 6.1
2017-Sep-20 04:31N 40°39' W 074°06'3 5.7
2017-Sep-20 04:01N 40°39' W 074°10'2 3.6
2017-Sep-20 03:30N 40°38' W 074°12'2 4.0
2017-Sep-20 03:00N 40°36' W 074°12'0 0.0
2017-Sep-20 02:02N 40°36' W 074°12'0 0.0
2017-Sep-20 01:36N 40°36' W 074°12'0 0.0
2017-Sep-20 00:13N 40°36' W 074°12'0 0.1
2017-Sep-20 00:00N 40°36' W 074°12'3 5.8
2017-Sep-19 23:30N 40°39' W 074°11'2 5.0
2017-Sep-19 23:00N 40°39' W 074°07'0 0.0
2017-Sep-19 22:31N 40°39' W 074°07'0 0.0
2017-Sep-19 22:00N 40°39' W 074°07'0 0.0
2017-Sep-19 21:30N 40°39' W 074°07'0 0.0
2017-Sep-19 21:00N 40°39' W 074°07'0 0.0
2017-Sep-19 20:30N 40°39' W 074°07'0 0.0
2017-Sep-19 20:01N 40°39' W 074°07'0 0.0
2017-Sep-19 19:31N 40°39' W 074°07'1 1.4
2017-Sep-19 19:01N 40°39' W 074°07'2 4.1
2017-Sep-19 18:31N 40°39' W 074°04'4 7.1
2017-Sep-19 18:01N 40°41' W 074°00'2 3.1
2017-Sep-19 17:31N 40°40' W 074°01'1 1.5
2017-Sep-19 17:00N 40°40' W 074°00'0 0.0
2017-Sep-19 16:31N 40°40' W 074°00'0 0.0
2017-Sep-19 16:01N 40°40' W 074°00'0 0.5
2017-Sep-19 15:31N 40°40' W 074°00'0 0.1
2017-Sep-19 15:01N 40°40' W 074°00'0 0.0
2017-Sep-19 14:31N 40°40' W 074°00'0 0.0
2017-Sep-19 14:01N 40°40' W 074°00'3 5.5
2017-Sep-19 13:31N 40°42' W 073°58'0 0.2
2017-Sep-19 13:01N 40°42' W 073°59'3 6.0
2017-Sep-19 12:31N 40°40' W 074°01'1 1.7
2017-Sep-19 12:01N 40°40' W 074°00'0 0.0
2017-Sep-19 11:31N 40°40' W 074°00'0 0.0
2017-Sep-19 11:01N 40°40' W 074°00'0 0.0
2017-Sep-19 10:31N 40°40' W 074°00'0 0.0
2017-Sep-19 10:01N 40°40' W 074°00'0 0.8
2017-Sep-19 09:31N 40°40' W 074°01'4 8.8
2017-Sep-19 09:01N 40°39' W 074°06'4 8.2
2017-Sep-19 08:30N 40°38' W 074°12'2 2.4
2017-Sep-19 07:35N 40°36' W 074°12'0 4.0
2017-Sep-19 07:30N 40°37' W 074°12'1 1.7
2017-Sep-19 07:00N 40°37' W 074°12'1 1.8
2017-Sep-19 06:30N 40°38' W 074°12'1 2.7
2017-Sep-19 06:00N 40°39' W 074°10'0 0.0
2017-Sep-19 05:30N 40°39' W 074°10'0 0.0
2017-Sep-19 05:00N 40°39' W 074°10'0 0.0
2017-Sep-19 04:23N 40°39' W 074°10'0 0.0
2017-Sep-19 04:00N 40°39' W 074°10'1 2.5
2017-Sep-19 03:30N 40°40' W 074°09'0 0.0
2017-Sep-19 03:00N 40°40' W 074°09'0 0.0
2017-Sep-19 02:30N 40°40' W 074°09'0 0.0
2017-Sep-19 02:00N 40°40' W 074°09'0 0.0
2017-Sep-19 01:30N 40°40' W 074°09'0 0.0
2017-Sep-19 01:00N 40°40' W 074°09'3 5.6
2017-Sep-19 00:30N 40°42' W 074°07'1 2.1
2017-Sep-18 23:59N 40°43' W 074°07'1 1.8
2017-Sep-18 23:30N 40°42' W 074°07'2 3.9
2017-Sep-18 23:00N 40°41' W 074°09'0 0.2
2017-Sep-18 22:31N 40°41' W 074°09'1 1.2
2017-Sep-18 22:00N 40°41' W 074°10'0 0.0
2017-Sep-18 21:30N 40°41' W 074°10'0 0.0
2017-Sep-18 20:59N 40°41' W 074°10'0 0.0
2017-Sep-18 20:30N 40°41' W 074°10'0 0.0
2017-Sep-18 20:00N 40°41' W 074°10'0 0.0
2017-Sep-18 19:31N 40°41' W 074°10'0 0.0
2017-Sep-18 19:00N 40°41' W 074°10'0 0.0
2017-Sep-18 18:31N 40°41' W 074°10'0 0.0
2017-Sep-18 18:00N 40°41' W 074°10'0 0.0
2017-Sep-18 17:31N 40°41' W 074°10'0 0.0
2017-Sep-18 17:01N 40°41' W 074°10'0 0.0
2017-Sep-18 16:31N 40°41' W 074°10'0 0.0
2017-Sep-18 16:00N 40°41' W 074°10'0 0.2
2017-Sep-18 15:30N 40°41' W 074°09'2 4.2
2017-Sep-18 15:01N 40°39' W 074°09'2 3.9
2017-Sep-18 14:31N 40°39' W 074°06'0 0.3
2017-Sep-18 14:01N 40°39' W 074°06'3 6.1
2017-Sep-18 13:31N 40°39' W 074°10'2 3.7
2017-Sep-18 13:00N 40°38' W 074°12'0 0.0
2017-Sep-18 12:31N 40°38' W 074°12'0 0.8
2017-Sep-18 12:00N 40°38' W 074°12'1 1.0
2017-Sep-18 11:30N 40°38' W 074°12'4 7.7
2017-Sep-18 11:00N 40°39' W 074°07'4 7.3
2017-Sep-18 10:31N 40°41' W 074°03'4 7.3
2017-Sep-18 10:01N 40°44' W 074°01'2 3.9
2017-Sep-18 09:30N 40°46' W 074°00'0 0.0
2017-Sep-18 09:01N 40°46' W 074°00'0 0.0
2017-Sep-18 08:31N 40°46' W 074°00'0 0.0
2017-Sep-18 08:01N 40°46' W 074°00'0 0.0
2017-Sep-18 07:30N 40°46' W 074°00'0 0.0
2017-Sep-18 07:01N 40°46' W 074°00'0 0.0
2017-Sep-18 06:30N 40°46' W 074°00'0 0.0
2017-Sep-18 06:00N 40°46' W 074°00'0 0.0
2017-Sep-18 05:30N 40°46' W 074°00'0 0.0
2017-Sep-18 05:01N 40°46' W 074°00'0 0.0
2017-Sep-18 04:30N 40°46' W 074°00'0 0.0
2017-Sep-18 04:00N 40°46' W 074°00'0 0.0
2017-Sep-18 03:30N 40°46' W 074°00'0 0.0
2017-Sep-18 03:01N 40°46' W 074°00'0 0.0
2017-Sep-18 02:30N 40°46' W 074°00'1 2.8
2017-Sep-18 02:01N 40°45' W 074°01'4 8.3
2017-Sep-18 01:31N 40°41' W 074°02'3 5.0
2017-Sep-18 01:01N 40°39' W 074°05'0 0.1
2017-Sep-18 00:30N 40°39' W 074°05'1 1.5
2017-Sep-18 00:01N 40°39' W 074°06'0 0.0
2017-Sep-17 23:31N 40°39' W 074°06'0 0.0
2017-Sep-17 23:01N 40°39' W 074°06'0 0.0
2017-Sep-17 22:31N 40°39' W 074°06'0 0.0
2017-Sep-17 22:00N 40°39' W 074°06'0 0.0
2017-Sep-17 21:31N 40°39' W 074°06'0 0.0
2017-Sep-17 21:00N 40°39' W 074°06'2 4.6
2017-Sep-17 20:31N 40°40' W 074°03'0 0.3
2017-Sep-17 20:01N 40°40' W 074°03'1 2.1
2017-Sep-17 19:31N 40°39' W 074°03'2 4.4
2017-Sep-17 19:01N 40°39' W 074°06'0 0.0
2017-Sep-17 18:31N 40°39' W 074°06'0 0.0
2017-Sep-17 18:00N 40°39' W 074°06'0 0.0
2017-Sep-17 17:30N 40°39' W 074°06'0 0.0
2017-Sep-17 17:01N 40°39' W 074°06'1 1.5
2017-Sep-17 16:30N 40°39' W 074°05'1 2.7
2017-Sep-17 16:01N 40°39' W 074°03'5 9.6
2017-Sep-17 15:30N 40°44' W 074°01'2 4.6
2017-Sep-17 15:00N 40°46' W 073°60'0 0.0
2017-Sep-17 14:31N 40°46' W 073°60'0 0.0
2017-Sep-17 14:01N 40°46' W 073°60'0 0.0
2017-Sep-17 13:30N 40°46' W 073°60'0 0.0
2017-Sep-17 13:00N 40°46' W 073°60'0 0.0
2017-Sep-17 12:31N 40°46' W 073°60'0 0.0
2017-Sep-17 12:01N 40°46' W 073°60'0 0.0
2017-Sep-17 11:30N 40°46' W 073°60'0 0.0
2017-Sep-17 11:00N 40°46' W 073°60'0 0.3
2017-Sep-17 10:31N 40°46' W 074°00'1 2.7
2017-Sep-17 10:00N 40°45' W 074°01'3 6.1
2017-Sep-17 09:31N 40°42' W 074°02'4 7.1
2017-Sep-17 09:01N 40°39' W 074°05'0 0.3
2017-Sep-17 08:30N 40°39' W 074°05'1 1.5
2017-Sep-17 08:00N 40°39' W 074°06'0 0.0
2017-Sep-17 07:31N 40°39' W 074°06'0 0.0
2017-Sep-17 07:01N 40°39' W 074°06'0 0.0
2017-Sep-17 06:01N 40°39' W 074°06'0 0.0
2017-Sep-17 05:31N 40°39' W 074°06'0 0.0
2017-Sep-17 05:01N 40°39' W 074°06'0 0.0
2017-Sep-17 04:30N 40°39' W 074°06'0 0.0
2017-Sep-17 04:00N 40°39' W 074°06'1 1.9
2017-Sep-17 03:30N 40°39' W 074°07'0 0.6
2017-Sep-17 03:01N 40°39' W 074°07'0 0.0
2017-Sep-17 02:30N 40°39' W 074°07'0 0.1
2017-Sep-17 02:00N 40°39' W 074°07'3 6.6
2017-Sep-17 01:31N 40°39' W 074°03'2 4.7
2017-Sep-17 01:01N 40°40' W 074°00'2 4.4
2017-Sep-17 00:30N 40°39' W 074°03'2 4.1
2017-Sep-17 00:01N 40°39' W 074°05'2 3.2
2017-Sep-16 23:30N 40°40' W 074°03'4 7.2
2017-Sep-16 23:01N 40°43' W 074°02'3 6.0
2017-Sep-16 22:30N 40°46' W 074°00'0 0.2
2017-Sep-16 22:00N 40°46' W 074°00'0 0.0
2017-Sep-16 21:30N 40°46' W 074°00'0 0.0
2017-Sep-16 21:00N 40°46' W 074°00'0 0.0
2017-Sep-16 20:30N 40°46' W 074°00'0 0.0
2017-Sep-16 20:00N 40°46' W 074°00'0 0.0
2017-Sep-16 19:30N 40°46' W 074°00'0 0.0
2017-Sep-16 19:01N 40°46' W 074°00'0 0.0
2017-Sep-16 18:30N 40°46' W 074°00'0 0.1
2017-Sep-16 18:00N 40°46' W 074°00'0 0.0
2017-Sep-16 17:30N 40°46' W 074°00'0 0.4
2017-Sep-16 17:00N 40°46' W 074°00'0 0.6
2017-Sep-16 16:30N 40°46' W 073°60'0 0.0
2017-Sep-16 16:00N 40°46' W 073°60'0 0.0
2017-Sep-16 15:30N 40°46' W 073°60'0 0.0
2017-Sep-16 15:00N 40°46' W 073°60'0 0.0
2017-Sep-16 14:30N 40°46' W 073°60'0 0.0
2017-Sep-16 14:00N 40°46' W 073°60'0 0.0
2017-Sep-16 13:30N 40°46' W 073°60'0 0.0
2017-Sep-16 13:00N 40°46' W 073°60'0 0.0
2017-Sep-16 12:30N 40°46' W 073°60'0 0.0
2017-Sep-16 12:00N 40°46' W 073°60'0 0.3
2017-Sep-16 11:30N 40°46' W 074°00'2 3.7
2017-Sep-16 11:00N 40°44' W 074°01'4 8.6
2017-Sep-16 10:30N 40°40' W 074°03'2 4.2
2017-Sep-16 10:00N 40°39' W 074°05'0 0.0
2017-Sep-16 09:30N 40°39' W 074°05'0 0.0
2017-Sep-16 09:00N 40°39' W 074°05'0 0.0
2017-Sep-16 08:30N 40°39' W 074°05'0 0.0
2017-Sep-16 08:01N 40°39' W 074°05'4 8.5
2017-Sep-16 07:30N 40°36' W 074°02'1 1.3
2017-Sep-16 07:00N 40°35' W 074°02'2 5.0
2017-Sep-16 06:30N 40°38' W 074°03'1 2.4
2017-Sep-16 06:00N 40°39' W 074°03'0 0.2
2017-Sep-16 05:30N 40°39' W 074°03'0 0.2
2017-Sep-16 05:00N 40°39' W 074°03'0 0.0
2017-Sep-16 04:30N 40°39' W 074°03'0 0.0
2017-Sep-16 04:00N 40°39' W 074°03'0 0.0
2017-Sep-16 03:30N 40°39' W 074°03'0 0.0
2017-Sep-16 03:00N 40°39' W 074°03'0 0.0
2017-Sep-16 02:30N 40°39' W 074°03'0 0.4
2017-Sep-16 02:00N 40°38' W 074°03'2 4.0
2017-Sep-16 01:30N 40°40' W 074°03'1 1.9
2017-Sep-16 01:00N 40°40' W 074°04'0 0.0
2017-Sep-16 00:30N 40°40' W 074°04'0 0.0
2017-Sep-16 00:00N 40°40' W 074°04'0 0.0
2017-Sep-15 23:30N 40°40' W 074°04'0 0.0
2017-Sep-15 23:00N 40°40' W 074°04'1 2.2
2017-Sep-15 22:30N 40°41' W 074°03'3 5.6
2017-Sep-15 22:00N 40°39' W 074°06'1 1.4
2017-Sep-15 21:30N 40°39' W 074°05'0 0.9
2017-Sep-15 21:00N 40°39' W 074°05'0 0.6
2017-Sep-15 20:31N 40°39' W 074°05'0 0.8
2017-Sep-15 20:00N 40°39' W 074°04'3 6.4
2017-Sep-15 19:31N 40°40' W 074°00'0 0.3
2017-Sep-15 19:00N 40°40' W 074°00'0 0.0
2017-Sep-15 18:30N 40°40' W 074°00'0 0.0
2017-Sep-15 18:00N 40°40' W 074°00'0 0.0
2017-Sep-15 17:30N 40°40' W 074°00'0 0.0
2017-Sep-15 17:00N 40°40' W 074°00'0 0.0
2017-Sep-15 16:30N 40°40' W 074°00'0 0.0
2017-Sep-15 16:00N 40°40' W 074°00'2 4.4
2017-Sep-15 15:30N 40°40' W 074°03'2 4.0
2017-Sep-15 15:01N 40°38' W 074°03'1 2.2
2017-Sep-15 14:30N 40°39' W 074°02'2 3.9
2017-Sep-15 14:01N 40°41' W 074°01'1 2.3
2017-Sep-15 13:30N 40°40' W 074°00'0 0.0
2017-Sep-15 13:00N 40°40' W 074°00'0 0.0
2017-Sep-15 12:30N 40°40' W 074°00'0 0.0
2017-Sep-15 12:00N 40°40' W 074°00'0 0.0
2017-Sep-15 11:30N 40°40' W 074°00'0 0.5
2017-Sep-15 11:00N 40°40' W 074°00'0 0.0
2017-Sep-15 10:31N 40°40' W 074°00'3 6.7
2017-Sep-15 10:00N 40°40' W 074°05'1 1.3
2017-Sep-15 09:30N 40°40' W 074°04'0 0.0
2017-Sep-15 09:00N 40°40' W 074°04'0 0.0
2017-Sep-15 08:30N 40°40' W 074°04'0 0.0
2017-Sep-15 08:00N 40°40' W 074°04'0 0.0
2017-Sep-15 07:30N 40°40' W 074°04'2 4.5
2017-Sep-15 07:01N 40°40' W 074°01'1 1.3
2017-Sep-15 06:30N 40°40' W 074°00'4 7.1
2017-Sep-15 06:00N 40°39' W 074°05'3 6.0
2017-Sep-15 05:30N 40°39' W 074°09'2 3.4
2017-Sep-15 05:00N 40°41' W 074°09'0 0.2
2017-Sep-15 04:30N 40°41' W 074°09'0 0.2
2017-Sep-15 04:00N 40°41' W 074°09'1 2.6
2017-Sep-15 03:30N 40°40' W 074°08'2 3.1
2017-Sep-15 03:00N 40°39' W 074°07'0 0.3
2017-Sep-15 02:31N 40°39' W 074°07'1 1.3
2017-Sep-15 02:00N 40°39' W 074°06'0 0.0
2017-Sep-15 01:30N 40°39' W 074°06'0 0.0
2017-Sep-15 01:01N 40°39' W 074°06'0 0.0
2017-Sep-15 00:30N 40°39' W 074°06'0 0.0
2017-Sep-15 00:01N 40°39' W 074°06'0 0.0
2017-Sep-14 23:31N 40°39' W 074°06'0 0.0
2017-Sep-14 23:00N 40°39' W 074°06'0 0.0
2017-Sep-14 22:31N 40°39' W 074°06'0 0.0
2017-Sep-14 22:00N 40°39' W 074°06'1 2.2
2017-Sep-14 21:30N 40°39' W 074°07'4 8.3
2017-Sep-14 21:01N 40°37' W 074°12'4 8.2
2017-Sep-14 20:30N 40°33' W 074°15'1 1.8
2017-Sep-14 19:59N 40°32' W 074°15'5 5.3
2017-Sep-14 19:08N 40°36' W 074°12'1 5.1
2017-Sep-14 18:58N 40°37' W 074°12'2 5.3
2017-Sep-14 18:31N 40°39' W 074°10'4 7.4
2017-Sep-14 18:00N 40°39' W 074°05'2 4.4
2017-Sep-14 17:31N 40°41' W 074°03'2 4.4
2017-Sep-14 17:01N 40°40' W 074°00'0 0.0
2017-Sep-14 16:30N 40°40' W 074°00'0 0.0
2017-Sep-14 16:00N 40°40' W 074°00'0 0.0
2017-Sep-14 15:31N 40°40' W 074°00'0 0.0
2017-Sep-14 15:01N 40°40' W 074°00'0 0.6
2017-Sep-14 14:30N 40°40' W 074°01'2 4.6
2017-Sep-14 14:00N 40°39' W 074°03'4 8.3
2017-Sep-14 13:31N 40°38' W 074°09'2 3.3
2017-Sep-14 13:00N 40°40' W 074°08'0 0.0
2017-Sep-14 12:31N 40°40' W 074°08'0 0.0
2017-Sep-14 12:01N 40°40' W 074°08'1 1.0
2017-Sep-14 11:31N 40°40' W 074°09'3 5.4
2017-Sep-14 11:01N 40°39' W 074°05'3 6.2
2017-Sep-14 10:30N 40°41' W 074°01'1 2.3
2017-Sep-14 10:00N 40°42' W 074°00'  

Dump ship's entire track history